createdAt,value
2022-10-12T00:00:17.865Z,0.00
2022-10-12T00:05:22.709Z,0.00
2022-10-12T00:10:29.489Z,0.00
2022-10-12T00:15:17.771Z,0.00
2022-10-12T00:20:24.312Z,0.00
2022-10-12T00:25:29.956Z,0.00
2022-10-12T00:30:18.631Z,0.00
2022-10-12T00:35:24.662Z,0.00
2022-10-12T00:40:31.269Z,0.00
2022-10-12T00:45:19.754Z,0.00
2022-10-12T00:50:25.797Z,0.00
2022-10-12T00:55:31.945Z,0.00
2022-10-12T01:00:21.322Z,0.00
2022-10-12T01:05:27.311Z,0.00
2022-10-12T01:10:33.356Z,0.00
2022-10-12T01:15:22.433Z,0.00
2022-10-12T01:20:28.968Z,0.00
2022-10-12T01:25:17.503Z,0.00
2022-10-12T01:30:23.213Z,0.00
2022-10-12T01:35:29.207Z,0.00
2022-10-12T01:40:18.619Z,0.00
2022-10-12T01:45:24.398Z,0.00
2022-10-12T01:50:30.412Z,0.00
2022-10-12T01:55:19.495Z,0.00
2022-10-12T02:00:26.184Z,0.00
2022-10-12T02:05:30.851Z,0.00
2022-10-12T02:10:19.912Z,0.00
2022-10-12T02:15:25.966Z,0.00
2022-10-12T02:20:32.629Z,0.00
2022-10-12T02:25:21.130Z,0.00
2022-10-12T02:30:26.885Z,0.00
2022-10-12T02:35:32.952Z,0.00
2022-10-12T02:40:22.294Z,0.00
2022-10-12T02:45:28.125Z,0.00
2022-10-12T02:50:17.002Z,0.00
2022-10-12T02:55:23.203Z,0.00
2022-10-12T03:00:29.663Z,0.00
2022-10-12T03:05:17.867Z,0.00
2022-10-12T03:10:23.521Z,0.00
2022-10-12T03:15:29.596Z,0.00
2022-10-12T03:20:19.003Z,0.00
2022-10-12T03:25:24.835Z,0.00
2022-10-12T03:30:30.571Z,0.00
2022-10-12T03:35:19.032Z,0.00
2022-10-12T03:40:25.082Z,0.00
2022-10-12T03:45:31.200Z,0.00
2022-10-12T03:50:20.212Z,0.00
2022-10-12T03:55:26.231Z,0.00
2022-10-12T04:00:37.689Z,0.00
2022-10-12T04:05:21.718Z,0.00
2022-10-12T04:10:27.731Z,0.00
2022-10-12T04:15:16.816Z,0.00
2022-10-12T04:20:22.905Z,0.00
2022-10-12T04:25:30.267Z,0.00
2022-10-12T04:30:17.656Z,0.00
2022-10-12T04:35:23.676Z,0.00
2022-10-12T04:40:29.885Z,0.00
2022-10-12T04:45:18.782Z,0.00
2022-10-12T04:50:29.689Z,0.00
2022-10-12T04:55:30.929Z,0.00
2022-10-12T05:00:20.106Z,0.00
2022-10-12T05:05:25.667Z,0.00
2022-10-12T05:10:31.762Z,0.00
2022-10-12T05:15:20.730Z,0.00
2022-10-12T05:20:26.833Z,0.00
2022-10-12T05:25:32.945Z,0.02
2022-10-12T05:30:21.281Z,1.18
2022-10-12T05:35:27.492Z,2.51
2022-10-12T05:40:16.468Z,4.08
2022-10-12T05:45:22.474Z,6.27
2022-10-12T05:50:28.585Z,8.43
2022-10-12T05:55:17.581Z,10.29
2022-10-12T06:00:23.974Z,12.53
2022-10-12T06:05:28.975Z,15.20
2022-10-12T06:10:17.978Z,19.28
2022-10-12T06:15:24.090Z,23.33
2022-10-12T06:25:19.256Z,39.36
2022-10-12T06:30:24.982Z,35.75
2022-10-12T06:35:31.520Z,43.92
2022-10-12T06:40:20.174Z,56.47
2022-10-12T06:45:26.243Z,66.24
2022-10-12T06:50:32.121Z,78.44
2022-10-12T06:55:21.201Z,71.35
2022-10-12T07:00:27.225Z,69.38
2022-10-12T07:05:17.903Z,75.45
2022-10-12T07:10:22.785Z,87.86
2022-10-12T07:15:28.739Z,88.02
2022-10-12T07:20:17.779Z,98.62
2022-10-12T07:25:23.814Z,122.51
2022-10-12T07:30:29.692Z,151.32
2022-10-12T07:35:18.765Z,171.47
2022-10-12T07:40:24.939Z,202.81
2022-10-12T07:45:30.839Z,207.33
2022-10-12T07:50:19.848Z,213.40
2022-10-12T07:55:25.999Z,143.32
2022-10-12T08:00:18.428Z,153.60
2022-10-12T08:05:20.548Z,186.98
2022-10-12T08:10:26.614Z,185.72
2022-10-12T08:15:32.566Z,256.02
2022-10-12T08:20:21.669Z,259.77
2022-10-12T08:25:27.793Z,217.12
2022-10-12T08:30:15.982Z,202.85
2022-10-12T08:35:22.080Z,253.03
2022-10-12T08:40:28.237Z,235.25
2022-10-12T08:45:17.175Z,215.47
2022-10-12T08:50:23.201Z,195.18
2022-10-12T08:55:29.250Z,187.87
2022-10-12T09:00:18.504Z,183.66
2022-10-12T09:05:24.598Z,226.28
2022-10-12T09:10:30.701Z,294.74
2022-10-12T09:15:19.760Z,315.36
2022-10-12T09:20:25.801Z,324.31
2022-10-12T09:25:32.368Z,342.40
2022-10-12T09:30:20.528Z,343.19
2022-10-12T09:35:26.588Z,353.90
2022-10-12T09:40:32.649Z,390.16
2022-10-12T09:45:21.641Z,375.24
2022-10-12T09:50:27.707Z,390.72
2022-10-12T09:55:17.209Z,366.06
2022-10-12T10:00:22.908Z,318.01
2022-10-12T10:05:28.142Z,359.69
2022-10-12T10:10:17.695Z,395.79
2022-10-12T10:15:24.049Z,403.09
2022-10-12T10:20:29.328Z,450.11
2022-10-12T10:25:18.346Z,443.02
2022-10-12T10:30:31.808Z,446.42
2022-10-12T10:35:30.133Z,445.00
2022-10-12T10:40:19.637Z,459.63
2022-10-12T10:45:25.312Z,463.85
2022-10-12T10:50:31.436Z,461.04
2022-10-12T10:55:20.331Z,463.61
2022-10-12T11:00:38.551Z,438.54
2022-10-12T11:05:33.103Z,407.56
2022-10-12T11:10:21.789Z,347.63
2022-10-12T11:15:27.843Z,413.06
2022-10-12T11:20:19.554Z,387.74
2022-10-12T11:25:22.930Z,148.40
2022-10-12T11:30:28.777Z,140.37
2022-10-12T11:35:17.817Z,369.81
2022-10-12T11:40:47.725Z,459.49
2022-10-12T11:45:29.975Z,454.46
2022-10-12T11:50:18.903Z,426.08
2022-10-12T11:55:25.108Z,418.74
2022-10-12T12:00:31.063Z,290.73
2022-10-12T12:05:19.359Z,398.45
2022-10-12T12:10:25.469Z,360.18
2022-10-12T12:15:17.389Z,409.48
2022-10-12T12:20:20.615Z,405.71
2022-10-12T12:25:26.656Z,393.96
2022-10-12T12:30:32.276Z,372.72
2022-10-12T12:35:21.396Z,354.04
2022-10-12T12:40:27.500Z,351.97
2022-10-12T12:45:16.485Z,348.87
2022-10-12T12:50:22.738Z,330.46
2022-10-12T12:55:28.615Z,325.17
2022-10-12T13:00:17.940Z,319.92
2022-10-12T13:05:23.018Z,319.75
2022-10-12T13:10:29.018Z,315.37
2022-10-12T13:15:18.049Z,303.47
2022-10-12T13:20:24.114Z,277.87
2022-10-12T13:25:31.072Z,264.21
2022-10-12T13:30:18.957Z,225.07
2022-10-12T13:35:24.977Z,219.89
2022-10-12T13:40:31.063Z,189.03
2022-10-12T13:45:20.072Z,219.58
2022-10-12T13:50:26.176Z,194.31
2022-10-12T13:55:32.206Z,192.14
2022-10-12T14:00:21.356Z,167.89
2022-10-12T14:05:27.632Z,151.39
2022-10-12T14:10:16.615Z,147.47
2022-10-12T14:15:22.771Z,155.78
2022-10-12T14:20:28.796Z,147.91
2022-10-12T14:25:17.844Z,131.62
2022-10-12T14:30:23.619Z,135.20
2022-10-12T14:35:29.591Z,115.10
2022-10-12T14:40:18.710Z,86.52
2022-10-12T14:45:25.124Z,96.95
2022-10-12T14:50:31.046Z,60.35
2022-10-12T14:55:19.788Z,54.41
2022-10-12T15:00:25.809Z,50.26
2022-10-12T15:05:31.160Z,48.24
2022-10-12T15:10:20.918Z,46.58
2022-10-12T15:15:29.007Z,41.96
2022-10-12T15:20:32.331Z,41.81
2022-10-12T15:30:27.196Z,37.82
2022-10-12T15:35:16.184Z,36.15
2022-10-12T15:45:28.349Z,29.11
2022-10-12T15:50:17.382Z,24.96
2022-10-12T15:55:23.535Z,21.68
2022-10-12T16:00:29.516Z,16.72
2022-10-12T16:05:17.877Z,13.15
2022-10-12T16:10:23.892Z,10.20
2022-10-12T16:15:29.923Z,7.07
2022-10-12T16:20:19.051Z,5.07
2022-10-12T16:25:25.138Z,2.77
2022-10-12T16:30:32.179Z,1.33
2022-10-12T16:35:20.770Z,0.23
2022-10-12T16:40:26.921Z,0.00
2022-10-12T16:45:32.923Z,0.00
2022-10-12T16:50:21.944Z,0.00
2022-10-12T16:55:28.131Z,0.00
2022-10-12T17:00:17.145Z,0.00
2022-10-12T17:05:22.518Z,0.00
2022-10-12T17:10:28.520Z,0.00
2022-10-12T17:15:17.523Z,0.00
2022-10-12T17:20:23.666Z,0.00
2022-10-12T17:25:29.701Z,0.00
2022-10-12T17:30:18.533Z,0.00
2022-10-12T17:35:24.522Z,0.00
2022-10-12T17:40:30.589Z,0.00
2022-10-12T17:45:19.804Z,0.00
2022-10-12T17:50:25.704Z,0.00
2022-10-12T17:55:47.721Z,0.00
2022-10-12T18:00:20.827Z,0.00
2022-10-12T18:05:26.191Z,0.00
2022-10-12T18:10:32.246Z,0.00
2022-10-12T18:15:21.434Z,0.00
2022-10-12T18:20:27.323Z,0.00
2022-10-12T18:25:16.370Z,0.00
2022-10-12T18:30:22.172Z,0.00
2022-10-12T18:35:28.178Z,0.00
2022-10-12T18:40:17.297Z,0.00
2022-10-12T18:45:23.334Z,0.00
2022-10-12T18:50:29.380Z,0.00
2022-10-12T18:55:18.392Z,0.00
2022-10-12T19:00:24.503Z,0.00
2022-10-12T19:05:30.421Z,0.00
2022-10-12T19:10:19.377Z,0.00
2022-10-12T19:15:25.515Z,0.00
2022-10-12T19:20:31.545Z,0.00
2022-10-12T19:25:20.530Z,0.00
2022-10-12T19:30:25.815Z,0.00
2022-10-12T19:35:31.899Z,0.00
2022-10-12T19:40:21.149Z,0.00
2022-10-12T19:45:27.009Z,0.00
2022-10-12T19:50:16.078Z,0.00
2022-10-12T19:55:22.117Z,0.00
2022-10-12T20:00:28.383Z,0.00
2022-10-12T20:05:17.473Z,0.00
2022-10-12T20:10:23.652Z,0.00
2022-10-12T20:15:29.633Z,0.00
2022-10-12T20:20:19.583Z,0.00
2022-10-12T20:25:24.793Z,0.00
2022-10-12T20:30:30.410Z,0.00
2022-10-12T20:35:19.437Z,0.00
2022-10-12T20:40:25.548Z,0.00
2022-10-12T20:45:31.591Z,0.00
2022-10-12T20:50:20.595Z,0.00
2022-10-12T20:55:26.737Z,0.00
2022-10-12T21:00:33.027Z,0.00
2022-10-12T21:05:21.026Z,0.00
2022-10-12T21:10:27.093Z,0.00
2022-10-12T21:15:16.147Z,0.00
2022-10-12T21:20:22.215Z,0.00
2022-10-12T21:25:28.276Z,0.00
2022-10-12T21:30:17.133Z,0.00
2022-10-12T21:35:23.090Z,0.00
2022-10-12T21:40:29.183Z,0.00
2022-10-12T21:45:18.296Z,0.00
2022-10-12T21:50:24.296Z,0.00
2022-10-12T21:55:30.458Z,0.00
2022-10-12T22:00:19.614Z,0.00
2022-10-12T22:05:25.833Z,0.00
2022-10-12T22:10:31.881Z,0.00
2022-10-12T22:15:20.870Z,0.00
2022-10-12T22:20:26.936Z,0.00
2022-10-12T22:25:33.028Z,0.00
2022-10-12T22:30:21.661Z,0.00
2022-10-12T22:35:27.798Z,0.00
2022-10-12T22:40:16.894Z,0.00
2022-10-12T22:45:27.756Z,0.00
2022-10-12T22:50:28.910Z,0.00
2022-10-12T22:55:17.995Z,0.00
2022-10-12T23:00:24.070Z,0.00
2022-10-12T23:05:29.515Z,0.00
2022-10-12T23:10:18.363Z,0.00
2022-10-12T23:15:24.591Z,0.00
2022-10-12T23:20:30.526Z,0.00
2022-10-12T23:25:19.616Z,0.00
2022-10-12T23:30:26.131Z,0.00
2022-10-12T23:35:31.337Z,0.00
2022-10-12T23:40:20.488Z,0.00
2022-10-12T23:45:26.470Z,0.00
2022-10-12T23:50:32.511Z,0.00
2022-10-12T23:55:21.593Z,0.00
